Time;durP1;ratioP1;P1;durP2;ratioP2;P2;SDS_P1;SDS_P2;PMS_P1;PMS_P2;Temp;Humidity;BMP_temperature;BMP_pressure;BME280_temperature;BME280_humidity;BME280_pressure;Samples;Min_cycle;Max_cycle;Signal;HPM_P1;HPM_P2
2023/04/16 00:00:36;;;;;;;;;;;13.10;65.20;;;;;;5097748;27;94412;-42
2023/04/16 00:03:02;;;;;;;;;;;13.10;65.20;;;;;;5098400;27;92124;-42
2023/04/16 00:05:27;;;;;;;;;;;13.10;65.20;;;;;;5101788;27;92412;-42
2023/04/16 00:07:53;;;;;;;;;;;13.10;65.10;;;;;;5098362;27;92161;-42
2023/04/16 00:10:18;;;;;;;;;;;13.10;65.20;;;;;;5096944;27;94517;-42
2023/04/16 00:12:44;;;;;;;;;;;13.10;65.10;;;;;;5097621;27;93946;-43
2023/04/16 00:15:10;;;;;;;;;;;13.10;65.20;;;;;;5100642;27;92543;-42
2023/04/16 00:17:35;;;;;;;;;;;13.10;65.10;;;;;;5101908;27;92556;-42
2023/04/16 00:20:01;;;;;;;;;;;13.00;65.00;;;;;;5101669;27;92923;-43
2023/04/16 00:22:26;;;;;;;;;;;13.00;65.10;;;;;;5100591;27;92467;-42
2023/04/16 00:24:52;;;;;;;;;;;13.00;65.00;;;;;;5100677;27;92833;-43
2023/04/16 00:27:17;;;;;;;;;;;13.00;65.10;;;;;;5101653;27;92145;-42
2023/04/16 00:29:43;;;;;;;;;;;13.00;65.10;;;;;;5102594;27;91574;-43
2023/04/16 00:32:08;;;;;;;;;;;13.00;65.10;;;;;;5101298;27;92924;-43
2023/04/16 00:34:34;;;;;;;;;;;13.00;65.10;;;;;;5101908;27;92129;-42
2023/04/16 00:37:00;;;;;;;;;;;13.00;65.10;;;;;;5100833;27;93864;-42
2023/04/16 00:39:25;;;;;;;;;;;12.90;65.10;;;;;;5100871;27;94837;-42
2023/04/16 00:41:50;;;;;;;;;;;12.90;65.00;;;;;;5101574;27;92056;-42
2023/04/16 00:44:16;;;;;;;;;;;12.90;65.10;;;;;;5101293;27;93829;-42
2023/04/16 00:46:41;;;;;;;;;;;12.90;65.10;;;;;;5103840;27;94620;-42
2023/04/16 00:49:07;;;;;;;;;;;12.90;65.00;;;;;;5101485;27;94084;-42
2023/04/16 00:51:34;;;;;;;;;;;12.90;65.10;;;;;;5100404;27;93708;-42
2023/04/16 00:54:00;;;;;;;;;;;12.90;65.00;;;;;;5101735;27;91530;-42
2023/04/16 00:56:26;;;;;;;;;;;12.90;65.10;;;;;;5100877;27;93011;-42
2023/04/16 00:58:53;;;;;;;;;;;12.90;65.00;;;;;;5100701;27;94389;-42
2023/04/16 01:01:18;;;;;;;;;;;12.80;64.90;;;;;;5100334;27;92989;-42
2023/04/16 01:03:45;;;;;;;;;;;12.90;65.00;;;;;;5100737;27;92895;-42
2023/04/16 01:06:11;;;;;;;;;;;12.90;65.10;;;;;;5099111;27;96210;-42
2023/04/16 01:08:36;;;;;;;;;;;12.80;65.00;;;;;;5104018;27;92186;-42
2023/04/16 01:11:02;;;;;;;;;;;12.80;65.00;;;;;;5100368;27;94414;-43
2023/04/16 01:13:27;;;;;;;;;;;12.80;65.00;;;;;;5100176;27;92739;-42
2023/04/16 01:15:53;;;;;;;;;;;12.80;65.00;;;;;;5101044;27;93623;-43
2023/04/16 01:18:19;;;;;;;;;;;12.80;65.00;;;;;;5100817;27;94263;-42
2023/04/16 01:20:46;;;;;;;;;;;12.80;65.10;;;;;;5100919;27;92218;-42
2023/04/16 01:23:11;;;;;;;;;;;12.80;65.00;;;;;;5100622;27;92485;-42
2023/04/16 01:25:37;;;;;;;;;;;12.70;65.00;;;;;;5098416;27;96028;-42
2023/04/16 01:28:02;;;;;;;;;;;12.70;65.00;;;;;;5100573;27;92155;-42
2023/04/16 01:30:28;;;;;;;;;;;12.70;65.00;;;;;;5103360;27;93785;-42
2023/04/16 01:32:54;;;;;;;;;;;12.70;65.00;;;;;;5100194;27;92300;-43
2023/04/16 01:35:19;;;;;;;;;;;12.70;65.00;;;;;;5100666;27;94013;-43
2023/04/16 01:37:45;;;;;;;;;;;12.70;65.60;;;;;;5099904;27;94378;-42
2023/04/16 01:40:11;;;;;;;;;;;12.70;65.00;;;;;;5100117;27;92168;-42
2023/04/16 01:42:36;;;;;;;;;;;12.70;65.00;;;;;;5101192;27;92381;-42
2023/04/16 01:45:02;;;;;;;;;;;12.60;64.90;;;;;;5100167;27;93186;-42
2023/04/16 01:47:28;;;;;;;;;;;12.60;64.90;;;;;;5100142;27;92185;-42
2023/04/16 01:49:53;;;;;;;;;;;12.60;64.90;;;;;;5099808;27;93646;-42
2023/04/16 01:52:19;;;;;;;;;;;12.60;64.90;;;;;;5102967;27;94746;-42
2023/04/16 01:54:44;;;;;;;;;;;12.60;64.90;;;;;;5100187;27;93795;-42
2023/04/16 01:57:10;;;;;;;;;;;12.60;64.90;;;;;;5099858;27;94432;-42
2023/04/16 01:59:35;;;;;;;;;;;12.60;65.00;;;;;;5095781;27;92842;-43
2023/04/16 02:02:07;;;;;;;;;;;12.60;64.90;;;;;;5100565;27;92463;-43
2023/04/16 02:04:32;;;;;;;;;;;12.60;64.90;;;;;;5096187;27;94321;-43
2023/04/16 02:06:58;;;;;;;;;;;12.50;64.80;;;;;;5100753;27;92271;-42
2023/04/16 02:09:23;;;;;;;;;;;12.50;64.80;;;;;;5100188;27;93249;-42
2023/04/16 02:11:49;;;;;;;;;;;12.50;64.90;;;;;;5099669;27;94725;-42
2023/04/16 02:14:14;;;;;;;;;;;12.50;64.90;;;;;;5097892;27;93988;-42
2023/04/16 02:16:40;;;;;;;;;;;12.50;64.90;;;;;;5099224;27;94199;-42
2023/04/16 02:19:05;;;;;;;;;;;12.40;65.00;;;;;;5099656;27;92689;-42
2023/04/16 02:21:31;;;;;;;;;;;12.40;64.90;;;;;;5099593;27;93929;-42
2023/04/16 02:23:56;;;;;;;;;;;12.40;65.00;;;;;;5099032;27;94383;-42
2023/04/16 02:26:22;;;;;;;;;;;12.40;64.90;;;;;;5100199;27;92135;-43
2023/04/16 02:28:47;;;;;;;;;;;12.40;65.00;;;;;;5099897;27;92798;-42
2023/04/16 02:31:16;;;;;;;;;;;12.40;65.00;;;;;;5099538;27;93789;-42
2023/04/16 02:33:42;;;;;;;;;;;12.40;64.90;;;;;;5102470;27;92129;-42
2023/04/16 02:36:10;;;;;;;;;;;12.40;65.00;;;;;;5098713;27;94619;-42
2023/04/16 02:38:36;;;;;;;;;;;12.40;65.00;;;;;;5098620;27;93129;-42
2023/04/16 02:41:01;;;;;;;;;;;12.40;64.80;;;;;;5099468;27;94886;-42
2023/04/16 02:43:27;;;;;;;;;;;12.30;64.80;;;;;;5099175;27;94407;-42
2023/04/16 02:45:52;;;;;;;;;;;12.30;65.10;;;;;;5099336;27;92077;-42
2023/04/16 02:48:18;;;;;;;;;;;12.30;64.90;;;;;;5099813;27;92438;-42
2023/04/16 02:50:43;;;;;;;;;;;12.30;64.90;;;;;;5098719;27;94669;-42
2023/04/16 02:53:09;;;;;;;;;;;12.30;65.00;;;;;;5099386;27;92145;-42
2023/04/16 02:55:35;;;;;;;;;;;12.30;64.80;;;;;;5102301;27;94148;-42
2023/04/16 02:58:00;;;;;;;;;;;12.30;64.80;;;;;;5099452;27;92151;-42
2023/04/16 03:00:26;;;;;;;;;;;12.30;65.00;;;;;;5099641;27;93928;-42
2023/04/16 03:02:51;;;;;;;;;;;12.30;65.00;;;;;;5097789;27;96161;-42
2023/04/16 03:05:17;;;;;;;;;;;12.20;65.00;;;;;;5099058;27;92154;-42
2023/04/16 03:07:43;;;;;;;;;;;12.20;65.00;;;;;;5099271;27;93480;-42
2023/04/16 03:10:08;;;;;;;;;;;12.20;65.00;;;;;;5098676;27;93320;-42
2023/04/16 03:12:35;;;;;;;;;;;12.20;64.90;;;;;;5099034;27;92517;-42
2023/04/16 03:15:00;;;;;;;;;;;12.20;65.00;;;;;;5098824;27;93855;-42
2023/04/16 03:17:26;;;;;;;;;;;12.20;64.90;;;;;;5101752;27;94622;-42
2023/04/16 03:19:51;;;;;;;;;;;12.10;64.70;;;;;;5099445;27;94231;-42
2023/04/16 03:22:17;;;;;;;;;;;12.10;64.90;;;;;;5098429;27;94533;-42
2023/04/16 03:24:42;;;;;;;;;;;12.10;64.80;;;;;;5099252;27;92256;-42
2023/04/16 03:27:08;;;;;;;;;;;12.10;64.90;;;;;;5098277;27;93286;-42
2023/04/16 03:29:35;;;;;;;;;;;12.10;65.10;;;;;;5098259;27;94689;-42
2023/04/16 03:32:00;;;;;;;;;;;12.00;64.90;;;;;;5095284;27;92147;-42
2023/04/16 03:34:26;;;;;;;;;;;12.10;64.90;;;;;;5098947;27;93455;-42
2023/04/16 03:36:51;;;;;;;;;;;12.10;65.10;;;;;;5098273;27;93099;-42
2023/04/16 03:39:17;;;;;;;;;;;12.10;65.00;;;;;;5102294;27;92072;-42
2023/04/16 03:41:42;;;;;;;;;;;12.10;64.90;;;;;;5098082;27;94549;-42
2023/04/16 03:44:08;;;;;;;;;;;12.00;64.90;;;;;;5099098;27;91416;-42
2023/04/16 03:46:33;;;;;;;;;;;12.00;64.90;;;;;;5098714;27;92523;-42
2023/04/16 03:48:59;;;;;;;;;;;12.00;64.90;;;;;;5098808;27;94834;-42
2023/04/16 03:51:25;;;;;;;;;;;12.00;65.00;;;;;;5101114;27;93621;-42
2023/04/16 03:53:50;;;;;;;;;;;12.00;65.10;;;;;;5101969;27;94695;-42
2023/04/16 03:56:16;;;;;;;;;;;12.00;65.10;;;;;;5101327;27;94365;-42
2023/04/16 03:58:42;;;;;;;;;;;12.00;65.10;;;;;;5102080;27;92128;-42
2023/04/16 04:01:07;;;;;;;;;;;12.00;64.90;;;;;;5104722;27;93857;-42
2023/04/16 04:03:33;;;;;;;;;;;11.90;65.00;;;;;;5101740;27;92193;-42
2023/04/16 04:05:58;;;;;;;;;;;11.90;64.90;;;;;;5102047;27;93846;-43
2023/04/16 04:08:24;;;;;;;;;;;11.90;65.10;;;;;;5097671;27;93942;-42
2023/04/16 04:10:50;;;;;;;;;;;11.90;65.00;;;;;;5102023;27;92055;-42
2023/04/16 04:13:15;;;;;;;;;;;11.90;65.10;;;;;;5101950;27;92295;-42
2023/04/16 04:15:41;;;;;;;;;;;11.90;65.10;;;;;;5100688;27;94135;-42
2023/04/16 04:18:06;;;;;;;;;;;11.80;65.10;;;;;;5102065;27;92579;-42
2023/04/16 04:20:32;;;;;;;;;;;11.80;65.10;;;;;;5101467;27;94120;-42
2023/04/16 04:22:57;;;;;;;;;;;11.80;65.00;;;;;;5104156;27;94908;-42
2023/04/16 04:25:23;;;;;;;;;;;11.80;65.00;;;;;;5101609;27;94019;-42
2023/04/16 04:27:48;;;;;;;;;;;11.80;65.20;;;;;;5100925;27;93418;-42
2023/04/16 04:30:14;;;;;;;;;;;11.80;65.30;;;;;;5101830;27;92141;-42
2023/04/16 04:32:40;;;;;;;;;;;11.80;65.20;;;;;;5102020;27;92715;-42
2023/04/16 04:35:05;;;;;;;;;;;11.80;65.10;;;;;;5101097;27;94604;-42
2023/04/16 04:37:31;;;;;;;;;;;11.80;65.10;;;;;;5101895;27;92198;-42
2023/04/16 04:39:56;;;;;;;;;;;11.80;65.10;;;;;;5100940;27;93003;-42
2023/04/16 04:42:23;;;;;;;;;;;11.80;65.20;;;;;;5104092;27;94500;-43
2023/04/16 04:44:49;;;;;;;;;;;11.70;65.10;;;;;;5101106;27;93920;-42
2023/04/16 04:47:14;;;;;;;;;;;11.70;65.10;;;;;;5100848;27;94552;-42
2023/04/16 04:49:40;;;;;;;;;;;11.70;65.20;;;;;;5097556;27;92761;-42
2023/04/16 04:52:05;;;;;;;;;;;11.70;65.20;;;;;;5101303;27;92340;-42
2023/04/16 04:54:31;;;;;;;;;;;11.70;65.20;;;;;;5100979;27;92907;-42
2023/04/16 04:56:57;;;;;;;;;;;11.70;65.20;;;;;;5101704;27;91865;-42
2023/04/16 04:59:23;;;;;;;;;;;11.70;65.20;;;;;;5101064;27;92922;-42
2023/04/16 05:01:49;;;;;;;;;;;11.70;65.80;;;;;;5100753;27;93282;-42
2023/04/16 05:04:14;;;;;;;;;;;11.70;65.20;;;;;;5103894;27;93214;-42
2023/04/16 05:06:40;;;;;;;;;;;11.70;65.20;;;;;;5100415;27;94608;-42
2023/04/16 05:09:10;;;;;;;;;;;11.60;65.20;;;;;;5100829;27;92169;-42
2023/04/16 05:11:40;;;;;;;;;;;11.60;65.30;;;;;;5100886;27;92907;-42
2023/04/16 05:14:05;;;;;;;;;;;11.60;65.30;;;;;;5099964;27;94724;-42
2023/04/16 05:16:31;;;;;;;;;;;11.60;65.30;;;;;;5100776;27;92389;-42
2023/04/16 05:18:57;;;;;;;;;;;11.60;65.30;;;;;;5100749;27;92421;-42
2023/04/16 05:21:22;;;;;;;;;;;11.60;65.20;;;;;;5100628;27;93741;-42
2023/04/16 05:23:48;;;;;;;;;;;11.60;65.30;;;;;;5100658;27;92461;-42
2023/04/16 05:26:13;;;;;;;;;;;11.60;65.30;;;;;;5103252;27;92570;-42
2023/04/16 05:28:39;;;;;;;;;;;11.60;65.30;;;;;;5099900;27;93139;-42
2023/04/16 05:31:04;;;;;;;;;;;11.60;65.30;;;;;;5100816;27;94871;-43
2023/04/16 05:33:30;;;;;;;;;;;11.50;65.20;;;;;;5100391;27;94205;-42
2023/04/16 05:35:55;;;;;;;;;;;11.60;65.40;;;;;;5100652;27;92384;-42
2023/04/16 05:38:21;;;;;;;;;;;11.50;65.40;;;;;;5100626;27;94135;-42
2023/04/16 05:40:46;;;;;;;;;;;11.50;65.40;;;;;;5100143;27;94708;-42
2023/04/16 05:43:12;;;;;;;;;;;11.50;65.40;;;;;;5100480;27;92597;-43
2023/04/16 05:45:39;;;;;;;;;;;11.50;65.40;;;;;;5100499;27;94035;-43
2023/04/16 05:48:08;;;;;;;;;;;11.50;65.40;;;;;;5102940;27;94754;-43
2023/04/16 05:50:34;;;;;;;;;;;11.50;65.50;;;;;;5100369;27;94012;-42
2023/04/16 05:53:01;;;;;;;;;;;11.50;65.50;;;;;;5099717;27;94118;-42
2023/04/16 05:55:26;;;;;;;;;;;11.50;65.50;;;;;;5100230;27;92185;-42
2023/04/16 05:57:52;;;;;;;;;;;11.50;65.40;;;;;;5100046;27;93692;-43
2023/04/16 06:00:17;;;;;;;;;;;11.50;65.50;;;;;;5099845;27;94876;-43
2023/04/16 06:02:43;;;;;;;;;;;11.50;65.40;;;;;;5100122;27;93146;-43
2023/04/16 06:05:08;;;;;;;;;;;11.50;65.40;;;;;;5100027;27;94235;-43
2023/04/16 06:07:34;;;;;;;;;;;11.50;65.50;;;;;;5099775;27;94247;-42
2023/04/16 06:10:00;;;;;;;;;;;11.50;65.50;;;;;;5103830;27;91453;-43
2023/04/16 06:12:26;;;;;;;;;;;11.50;65.50;;;;;;5098928;27;94348;-43
2023/04/16 06:14:51;;;;;;;;;;;11.40;65.60;;;;;;5099382;27;92570;-42
2023/04/16 06:17:18;;;;;;;;;;;11.50;65.60;;;;;;5099484;27;94253;-42
2023/04/16 06:19:43;;;;;;;;;;;11.50;65.50;;;;;;5098809;27;94836;-43
2023/04/16 06:22:09;;;;;;;;;;;11.50;65.50;;;;;;5099897;27;92277;-43
2023/04/16 06:24:35;;;;;;;;;;;11.50;65.50;;;;;;5100037;27;93822;-43
2023/04/16 06:27:01;;;;;;;;;;;11.50;65.60;;;;;;5099307;27;94536;-43
2023/04/16 06:29:27;;;;;;;;;;;11.50;65.70;;;;;;5100116;27;92327;-43
2023/04/16 06:31:52;;;;;;;;;;;11.50;65.60;;;;;;5102797;27;92687;-43
2023/04/16 06:34:18;;;;;;;;;;;11.50;65.60;;;;;;5099958;27;91315;-42
2023/04/16 06:36:43;;;;;;;;;;;11.50;65.50;;;;;;5099442;27;93124;-43
2023/04/16 06:39:09;;;;;;;;;;;11.50;65.60;;;;;;5099241;27;94239;-43
2023/04/16 06:41:35;;;;;;;;;;;11.50;66.10;;;;;;5099275;27;93111;-43
2023/04/16 06:44:00;;;;;;;;;;;11.50;65.60;;;;;;5099674;27;93591;-43
2023/04/16 06:46:26;;;;;;;;;;;11.50;65.50;;;;;;5098813;27;93996;-43
2023/04/16 06:48:51;;;;;;;;;;;11.50;65.60;;;;;;5099284;27;92925;-43
2023/04/16 06:51:17;;;;;;;;;;;11.50;65.50;;;;;;5101882;27;93947;-43
2023/04/16 06:53:42;;;;;;;;;;;11.50;65.60;;;;;;5099421;27;92158;-43
2023/04/16 06:56:08;;;;;;;;;;;11.50;65.60;;;;;;5099489;27;93585;-43
2023/04/16 06:58:33;;;;;;;;;;;11.50;65.60;;;;;;5099430;27;92554;-43
2023/04/16 07:00:59;;;;;;;;;;;11.50;65.70;;;;;;5098865;27;92039;-43
2023/04/16 07:03:25;;;;;;;;;;;11.50;65.60;;;;;;5099266;27;93630;-43
2023/04/16 07:05:50;;;;;;;;;;;11.50;65.60;;;;;;5098017;27;94040;-43
2023/04/16 07:08:16;;;;;;;;;;;11.50;65.60;;;;;;5099054;27;92166;-43
2023/04/16 07:10:41;;;;;;;;;;;11.50;65.60;;;;;;5099059;27;93666;-43
2023/04/16 07:13:07;;;;;;;;;;;11.50;65.50;;;;;;5101491;27;94556;-43
2023/04/16 07:15:32;;;;;;;;;;;11.50;65.60;;;;;;5094892;27;92506;-43
2023/04/16 07:17:58;;;;;;;;;;;11.50;65.50;;;;;;5098919;27;93046;-43
2023/04/16 07:20:24;;;;;;;;;;;11.50;65.60;;;;;;5098967;27;92836;-43
2023/04/16 07:22:49;;;;;;;;;;;11.50;65.50;;;;;;5099439;27;93758;-43
2023/04/16 07:25:15;;;;;;;;;;;11.50;65.60;;;;;;5101333;27;94888;-43
2023/04/16 07:27:40;;;;;;;;;;;11.60;65.60;;;;;;5102823;27;92834;-43
2023/04/16 07:30:06;;;;;;;;;;;11.50;65.70;;;;;;5101787;27;93833;-43
2023/04/16 07:32:32;;;;;;;;;;;11.50;65.70;;;;;;5094515;27;93109;-43
2023/04/16 07:34:57;;;;;;;;;;;11.50;65.70;;;;;;5105938;27;92581;-43
2023/04/16 07:37:23;;;;;;;;;;;11.50;65.70;;;;;;5101642;27;94423;-43
2023/04/16 07:39:48;;;;;;;;;;;11.60;65.70;;;;;;5102296;27;92198;-43
2023/04/16 07:42:14;;;;;;;;;;;11.50;65.70;;;;;;5102706;27;93052;-43
2023/04/16 07:44:40;;;;;;;;;;;11.50;65.70;;;;;;5101783;27;94707;-43
2023/04/16 07:47:05;;;;;;;;;;;11.60;65.70;;;;;;5103019;27;91716;-43
2023/04/16 07:49:30;;;;;;;;;;;11.60;65.60;;;;;;5102614;27;93161;-43
2023/04/16 07:51:56;;;;;;;;;;;11.60;65.70;;;;;;5101538;27;94901;-43
2023/04/16 07:54:21;;;;;;;;;;;11.60;65.60;;;;;;5101609;27;93398;-43
2023/04/16 07:56:47;;;;;;;;;;;11.60;65.60;;;;;;5105243;27;93407;-43
2023/04/16 07:59:12;;;;;;;;;;;11.60;65.80;;;;;;5102542;27;92260;-43
2023/04/16 08:01:38;;;;;;;;;;;11.60;65.70;;;;;;5102353;27;92416;-43
2023/04/16 08:04:03;;;;;;;;;;;11.60;65.80;;;;;;5101708;27;93118;-43
2023/04/16 08:06:30;;;;;;;;;;;11.60;65.80;;;;;;5102073;27;92420;-43
2023/04/16 08:08:55;;;;;;;;;;;11.60;65.70;;;;;;5102231;27;94064;-43
2023/04/16 08:11:21;;;;;;;;;;;11.60;65.90;;;;;;5101851;27;93504;-43
2023/04/16 08:13:46;;;;;;;;;;;11.60;66.50;;;;;;5101405;27;92892;-43
2023/04/16 08:16:12;;;;;;;;;;;11.60;65.90;;;;;;5102012;27;93749;-43
2023/04/16 08:18:37;;;;;;;;;;;11.60;66.00;;;;;;5103463;27;95606;-43
2023/04/16 08:21:03;;;;;;;;;;;11.60;66.00;;;;;;5101738;27;94796;-43
2023/04/16 08:23:28;;;;;;;;;;;11.60;66.10;;;;;;5101175;27;94691;-43
2023/04/16 08:25:54;;;;;;;;;;;11.60;66.10;;;;;;5101812;27;92153;-43
2023/04/16 08:28:19;;;;;;;;;;;11.60;66.10;;;;;;5101901;27;92481;-43
2023/04/16 08:30:45;;;;;;;;;;;11.60;66.20;;;;;;5101932;27;93110;-43
2023/04/16 08:33:12;;;;;;;;;;;11.60;66.10;;;;;;5101992;27;92276;-42
2023/04/16 08:35:38;;;;;;;;;;;11.60;66.10;;;;;;5097748;27;93895;-43
2023/04/16 08:38:04;;;;;;;;;;;11.60;66.10;;;;;;5101158;27;93960;-43
2023/04/16 08:40:30;;;;;;;;;;;11.60;66.10;;;;;;5105053;27;92029;-43
2023/04/16 08:42:58;;;;;;;;;;;11.60;66.10;;;;;;5100306;27;95398;-43
2023/04/16 08:45:25;;;;;;;;;;;11.60;66.20;;;;;;5101719;27;92133;-43
2023/04/16 08:47:50;;;;;;;;;;;11.60;66.20;;;;;;5097430;27;93918;-42
2023/04/16 08:50:17;;;;;;;;;;;11.60;66.20;;;;;;5101416;27;93556;-42
2023/04/16 08:52:50;;;;;;;;;;;11.60;66.20;;;;;;5101333;27;92607;-43
2023/04/16 08:55:17;;;;;;;;;;;11.60;66.30;;;;;;5101461;27;92372;-44
2023/04/16 08:57:47;;;;;;;;;;;11.60;66.20;;;;;;5100798;27;94319;-43
2023/04/16 09:00:13;;;;;;;;;;;11.60;66.20;;;;;;5104752;27;91486;-43
2023/04/16 09:02:38;;;;;;;;;;;11.60;66.20;;;;;;5100298;27;93782;-43
2023/04/16 09:05:05;;;;;;;;;;;11.70;66.80;;;;;;5100922;27;92146;-43
2023/04/16 09:07:32;;;;;;;;;;;11.70;66.20;;;;;;5100381;27;94926;-43
2023/04/16 09:09:58;;;;;;;;;;;11.70;66.20;;;;;;5100640;27;94629;-43
2023/04/16 09:12:24;;;;;;;;;;;11.70;66.20;;;;;;5097186;27;92962;-43
2023/04/16 09:14:50;;;;;;;;;;;11.70;66.10;;;;;;5100568;27;93837;-43
2023/04/16 09:17:16;;;;;;;;;;;11.70;66.00;;;;;;5100403;27;94818;-43
2023/04/16 09:19:41;;;;;;;;;;;11.80;65.90;;;;;;5100463;27;92763;-43
2023/04/16 09:22:07;;;;;;;;;;;11.70;66.00;;;;;;5103479;27;93694;-43
2023/04/16 09:24:33;;;;;;;;;;;11.80;66.00;;;;;;5101884;27;91618;-43
2023/04/16 09:26:59;;;;;;;;;;;11.80;65.90;;;;;;5101004;27;93120;-44
2023/04/16 09:29:35;;;;;;;;;;;11.80;65.90;;;;;;5100244;27;94292;-43
2023/04/16 09:32:05;;;;;;;;;;;11.80;66.00;;;;;;5100188;27;93140;-43
2023/04/16 09:34:33;;;;;;;;;;;11.80;66.00;;;;;;5097346;27;94702;-43
2023/04/16 09:37:17;;;;;;;;;;;11.80;66.00;;;;;;5100124;27;94608;-43
2023/04/16 09:39:43;;;;;;;;;;;11.90;66.00;;;;;;5097671;27;93106;-43
2023/04/16 09:42:09;;;;;;;;;;;11.90;66.10;;;;;;5100643;27;92843;-43
2023/04/16 09:44:36;;;;;;;;;;;11.90;66.10;;;;;;5103408;27;94527;-43
2023/04/16 09:47:08;;;;;;;;;;;11.90;66.10;;;;;;5099173;27;93733;-43
2023/04/16 09:49:37;;;;;;;;;;;11.90;66.10;;;;;;5097608;27;92203;-43
2023/04/16 09:52:07;;;;;;;;;;;12.00;66.20;;;;;;5096242;27;92181;-43
2023/04/16 09:54:33;;;;;;;;;;;12.00;66.20;;;;;;5100394;27;94029;-43
2023/04/16 09:56:59;;;;;;;;;;;12.00;66.20;;;;;;5099184;27;95385;-44
2023/04/16 09:59:29;;;;;;;;;;;12.00;66.30;;;;;;5100282;27;92196;-44
2023/04/16 10:01:57;;;;;;;;;;;12.00;66.30;;;;;;5100281;27;92420;-43
2023/04/16 10:04:23;;;;;;;;;;;12.00;66.30;;;;;;5099447;27;94626;-43
2023/04/16 10:07:08;;;;;;;;;;;12.00;66.40;;;;;;5102882;27;92135;-43
2023/04/16 10:09:37;;;;;;;;;;;12.00;66.40;;;;;;5093266;27;94728;-43
2023/04/16 10:12:02;;;;;;;;;;;12.00;66.40;;;;;;5099721;27;92807;-44
2023/04/16 10:14:28;;;;;;;;;;;12.10;66.50;;;;;;5099903;27;93831;-43
2023/04/16 10:16:56;;;;;;;;;;;12.10;66.50;;;;;;5099393;27;93672;-43
2023/04/16 10:19:23;;;;;;;;;;;12.10;66.40;;;;;;5099709;27;92201;-43
2023/04/16 10:21:48;;;;;;;;;;;12.10;66.40;;;;;;5099077;27;93968;-43
2023/04/16 10:24:16;;;;;;;;;;;12.10;66.40;;;;;;5099085;27;94447;-43
2023/04/16 10:26:42;;;;;;;;;;;12.10;66.60;;;;;;5095922;27;92510;-43
2023/04/16 10:29:08;;;;;;;;;;;12.10;66.60;;;;;;5102407;27;93656;-43
2023/04/16 10:31:35;;;;;;;;;;;12.10;66.60;;;;;;5099706;27;92157;-44
2023/04/16 10:34:00;;;;;;;;;;;12.10;66.70;;;;;;5100048;27;92413;-43
2023/04/16 10:36:26;;;;;;;;;;;12.20;66.80;;;;;;5099123;27;94853;-43
2023/04/16 10:38:52;;;;;;;;;;;12.20;66.70;;;;;;5099843;27;91817;-43
2023/04/16 10:41:21;;;;;;;;;;;12.20;66.60;;;;;;5095686;27;92239;-43
2023/04/16 10:43:47;;;;;;;;;;;12.20;66.60;;;;;;5099387;27;95162;-43
2023/04/16 10:46:17;;;;;;;;;;;12.20;66.70;;;;;;5098862;27;93072;-44
2023/04/16 10:48:42;;;;;;;;;;;12.20;66.80;;;;;;5102106;27;94754;-43
2023/04/16 10:51:21;;;;;;;;;;;12.20;66.70;;;;;;5099163;27;92223;-43
2023/04/16 10:53:47;;;;;;;;;;;12.20;66.70;;;;;;5099368;27;93975;-43
2023/04/16 10:56:12;;;;;;;;;;;12.30;66.80;;;;;;5098710;27;94371;-43
2023/04/16 10:58:38;;;;;;;;;;;12.30;66.90;;;;;;5099022;27;92245;-43
2023/04/16 11:01:12;;;;;;;;;;;12.30;66.90;;;;;;5099272;27;93815;-43
2023/04/16 11:03:41;;;;;;;;;;;12.30;66.90;;;;;;5099208;27;93779;-43
2023/04/16 11:06:10;;;;;;;;;;;12.30;66.90;;;;;;5099073;27;92253;-43
2023/04/16 11:08:37;;;;;;;;;;;12.30;66.90;;;;;;5095348;27;93893;-43
2023/04/16 11:11:03;;;;;;;;;;;12.30;66.90;;;;;;5100870;27;95405;-43
2023/04/16 11:13:30;;;;;;;;;;;12.40;67.50;;;;;;5098495;27;94806;-43
2023/04/16 11:15:56;;;;;;;;;;;12.40;66.90;;;;;;5098485;27;94297;-43
2023/04/16 11:18:22;;;;;;;;;;;12.40;66.90;;;;;;5098802;27;92084;-43
2023/04/16 11:20:47;;;;;;;;;;;12.40;66.90;;;;;;5098801;27;94001;-43
2023/04/16 11:23:13;;;;;;;;;;;12.40;67.00;;;;;;5098572;27;94226;-43
2023/04/16 11:25:38;;;;;;;;;;;12.40;67.00;;;;;;5099168;27;92159;-43
2023/04/16 11:28:04;;;;;;;;;;;12.40;66.90;;;;;;5099541;27;92404;-43
2023/04/16 11:30:30;;;;;;;;;;;12.50;67.00;;;;;;5098984;27;92865;-43
2023/04/16 11:32:55;;;;;;;;;;;12.40;66.90;;;;;;5102039;27;92139;-43
2023/04/16 11:35:21;;;;;;;;;;;12.50;67.50;;;;;;5098080;27;93965;-44
2023/04/16 11:37:47;;;;;;;;;;;12.50;67.00;;;;;;5098400;27;92191;-43
2023/04/16 11:40:13;;;;;;;;;;;12.50;67.00;;;;;;5098499;27;94232;-43
2023/04/16 11:42:39;;;;;;;;;;;12.50;67.00;;;;;;5098211;27;94795;-43
2023/04/16 11:45:05;;;;;;;;;;;12.50;67.00;;;;;;5098954;27;92128;-43
2023/04/16 11:47:31;;;;;;;;;;;12.60;67.10;;;;;;5098616;27;95256;-43
2023/04/16 11:49:57;;;;;;;;;;;12.50;67.00;;;;;;5098036;27;94923;-44
2023/04/16 11:52:26;;;;;;;;;;;12.60;67.00;;;;;;5098331;27;91478;-44
2023/04/16 11:54:52;;;;;;;;;;;12.60;67.10;;;;;;5100842;27;92911;-43
2023/04/16 11:57:24;;;;;;;;;;;12.60;67.00;;;;;;5098456;27;92230;-43
2023/04/16 11:59:50;;;;;;;;;;;12.60;67.00;;;;;;5097873;27;93032;-43
2023/04/16 12:02:15;;;;;;;;;;;12.70;67.00;;;;;;5097923;27;94389;-44
2023/04/16 12:04:41;;;;;;;;;;;12.70;67.00;;;;;;5098501;27;92207;-43
2023/04/16 12:07:13;;;;;;;;;;;12.70;67.00;;;;;;5098168;27;93615;-43
2023/04/16 12:09:40;;;;;;;;;;;12.70;67.00;;;;;;5098390;27;92263;-43
2023/04/16 12:12:23;;;;;;;;;;;12.70;66.90;;;;;;5101759;27;92581;-44
2023/04/16 12:14:49;;;;;;;;;;;12.70;66.90;;;;;;5101155;27;93576;-43
2023/04/16 12:17:16;;;;;;;;;;;12.80;66.80;;;;;;5104604;27;93753;-43
2023/04/16 12:19:51;;;;;;;;;;;12.80;66.70;;;;;;5101823;27;92917;-43
2023/04/16 12:22:17;;;;;;;;;;;12.80;66.80;;;;;;5101377;27;94440;-43
2023/04/16 12:24:42;;;;;;;;;;;12.80;66.80;;;;;;5101228;27;93032;-43
2023/04/16 12:27:08;;;;;;;;;;;12.80;66.80;;;;;;5101739;27;93432;-43
2023/04/16 12:29:34;;;;;;;;;;;12.80;66.80;;;;;;5101181;27;94392;-43
2023/04/16 12:32:00;;;;;;;;;;;12.90;66.60;;;;;;5101720;27;92228;-43
2023/04/16 12:34:26;;;;;;;;;;;12.90;66.60;;;;;;5101887;27;92400;-43
2023/04/16 12:37:06;;;;;;;;;;;12.90;66.60;;;;;;5101004;27;94439;-44
2023/04/16 12:39:32;;;;;;;;;;;12.90;66.60;;;;;;5101889;27;92397;-43
2023/04/16 12:41:57;;;;;;;;;;;12.90;66.70;;;;;;5101309;27;93988;-44
2023/04/16 12:44:22;;;;;;;;;;;12.90;66.60;;;;;;5101587;27;92577;-44
2023/04/16 12:46:48;;;;;;;;;;;12.90;66.60;;;;;;5101424;27;92972;-43
2023/04/16 12:49:13;;;;;;;;;;;12.90;66.60;;;;;;5100032;27;96434;-43
2023/04/16 12:51:39;;;;;;;;;;;12.90;66.50;;;;;;5100689;27;92362;-44
2023/04/16 12:54:08;;;;;;;;;;;12.90;66.50;;;;;;5100950;27;93569;-43
2023/04/16 12:56:35;;;;;;;;;;;12.90;66.50;;;;;;5100408;27;94355;-44
2023/04/16 12:59:01;;;;;;;;;;;12.90;66.60;;;;;;5103655;27;92142;-43
2023/04/16 13:01:26;;;;;;;;;;;12.90;66.80;;;;;;5099903;27;93152;-44
2023/04/16 13:03:52;;;;;;;;;;;12.90;66.70;;;;;;5100961;27;92101;-44
2023/04/16 13:06:19;;;;;;;;;;;12.90;66.90;;;;;;5101881;27;92398;-44
2023/04/16 13:08:44;;;;;;;;;;;12.90;66.90;;;;;;5100277;27;94478;-43
2023/04/16 13:11:10;;;;;;;;;;;12.90;66.90;;;;;;5101017;27;92108;-44
2023/04/16 13:13:36;;;;;;;;;;;12.90;66.90;;;;;;5100163;27;94062;-44
2023/04/16 13:16:07;;;;;;;;;;;12.90;67.00;;;;;;5100466;27;94789;-43
2023/04/16 13:18:33;;;;;;;;;;;12.90;67.00;;;;;;5097115;27;92116;-44
2023/04/16 13:20:58;;;;;;;;;;;12.90;67.10;;;;;;5102742;27;92796;-45
2023/04/16 13:23:24;;;;;;;;;;;12.90;67.20;;;;;;5100125;27;92171;-43
2023/04/16 13:25:49;;;;;;;;;;;12.90;67.10;;;;;;5101146;27;92559;-43
2023/04/16 13:28:15;;;;;;;;;;;13.00;67.20;;;;;;5100085;27;94653;-43
2023/04/16 13:30:41;;;;;;;;;;;13.00;67.20;;;;;;5100945;27;91425;-43
2023/04/16 13:33:07;;;;;;;;;;;13.00;67.30;;;;;;5100897;27;92716;-43
2023/04/16 13:35:32;;;;;;;;;;;13.00;67.40;;;;;;5100040;27;94606;-43
2023/04/16 13:37:58;;;;;;;;;;;13.10;67.40;;;;;;5099990;27;93105;-43
2023/04/16 13:40:23;;;;;;;;;;;13.10;67.50;;;;;;5100148;27;94947;-44
2023/04/16 13:42:49;;;;;;;;;;;13.10;67.50;;;;;;5102767;27;94635;-44
2023/04/16 13:45:14;;;;;;;;;;;13.20;67.70;;;;;;5100009;27;93757;-43
2023/04/16 13:47:43;;;;;;;;;;;13.10;67.60;;;;;;5099411;27;94665;-44
2023/04/16 13:50:09;;;;;;;;;;;13.20;67.70;;;;;;5100159;27;92087;-43
2023/04/16 13:52:35;;;;;;;;;;;13.20;67.80;;;;;;5100393;27;93953;-43
2023/04/16 13:55:01;;;;;;;;;;;13.20;67.70;;;;;;5100032;27;93728;-43
2023/04/16 13:57:27;;;;;;;;;;;13.20;67.80;;;;;;5100350;27;92169;-43
2023/04/16 13:59:52;;;;;;;;;;;13.20;67.80;;;;;;5099944;27;94162;-43
2023/04/16 14:02:19;;;;;;;;;;;13.30;67.80;;;;;;5098880;27;93948;-43
2023/04/16 14:04:45;;;;;;;;;;;13.30;67.80;;;;;;5102933;27;92149;-43
2023/04/16 14:07:10;;;;;;;;;;;13.30;67.80;;;;;;5099752;27;94349;-43
2023/04/16 14:09:36;;;;;;;;;;;13.30;67.80;;;;;;5100139;27;92298;-44